Time;durP1;ratioP1;P1;durP2;ratioP2;P2;SDS_P1;SDS_P2;PMS_P1;PMS_P2;Temp;Humidity;BMP_temperature;BMP_pressure;BME280_temperature;BME280_humidity;BME280_pressure;Samples;Min_cycle;Max_cycle;Signal;HPM_P1;HPM_P2
2023/04/09 00:01:05;;;;;;;2.15;1.95;;;7.50;99.90;;;;;;5028925;28;20287;-81
2023/04/09 00:03:32;;;;;;;5.28;2.78;;;7.50;99.90;;;;;;5036391;28;20216;-81
2023/04/09 00:05:59;;;;;;;11.90;2.08;;;7.50;99.90;;;;;;5029140;28;20302;-80
2023/04/09 00:08:26;;;;;;;2.05;1.95;;;7.40;99.90;;;;;;5037410;28;20196;-81
2023/04/09 00:10:54;;;;;;;2.38;1.63;;;7.40;99.90;;;;;;5037163;28;20202;-81
2023/04/09 00:13:21;;;;;;;0.50;0.40;;;7.30;99.90;;;;;;5036758;28;20297;-81
2023/04/09 00:15:49;;;;;;;1.70;1.35;;;7.30;99.90;;;;;;5030645;28;20216;-80
2023/04/09 00:18:16;;;;;;;0.63;0.63;;;7.30;99.90;;;;;;5035181;28;20204;-80
2023/04/09 00:20:43;;;;;;;2.70;1.38;;;7.20;99.90;;;;;;5028593;28;20202;-81
2023/04/09 00:23:10;;;;;;;0.50;0.40;;;7.20;99.90;;;;;;5036767;28;20206;-80
2023/04/09 00:25:37;;;;;;;0.73;0.73;;;7.20;99.90;;;;;;5027799;28;20221;-82
2023/04/09 00:28:04;;;;;;;15.48;14.10;;;7.10;99.90;;;;;;5036243;28;20329;-81
2023/04/09 00:30:31;;;;;;;0.50;0.40;;;7.10;99.90;;;;;;5028602;28;20191;-81
2023/04/09 00:32:59;;;;;;;2.50;2.30;;;7.00;99.90;;;;;;5036636;28;20651;-81
2023/04/09 00:35:26;;;;;;;2.35;1.08;;;6.90;99.90;;;;;;5036279;28;20242;-81
2023/04/09 00:37:53;;;;;;;0.50;0.50;;;6.80;99.90;;;;;;5036871;28;20599;-80
2023/04/09 00:40:20;;;;;;;7.93;1.05;;;6.80;99.90;;;;;;5037189;28;20282;-81
2023/04/09 00:42:46;;;;;;;0.50;0.40;;;6.80;99.90;;;;;;5036601;28;20218;-80
2023/04/09 00:45:13;;;;;;;3.60;3.33;;;6.80;99.90;;;;;;5028011;28;20318;-81
2023/04/09 00:47:41;;;;;;;1.70;1.60;;;6.70;99.90;;;;;;5031640;28;20388;-81
2023/04/09 00:50:10;;;;;;;1.30;1.20;;;6.70;99.90;;;;;;5033203;28;20642;-81
2023/04/09 00:52:38;;;;;;;0.50;0.50;;;6.60;99.90;;;;;;5040405;28;20202;-79
2023/04/09 00:55:06;;;;;;;0.50;0.50;;;6.60;99.90;;;;;;5041340;28;20298;-78
2023/04/09 00:57:33;;;;;;;0.60;0.50;;;6.60;99.90;;;;;;5040595;28;20263;-79
2023/04/09 01:00:00;;;;;;;0.55;0.50;;;6.50;99.90;;;;;;5037540;28;20566;-82
2023/04/09 01:02:27;;;;;;;2.08;1.98;;;6.50;99.90;;;;;;5036676;28;20206;-79
2023/04/09 01:04:54;;;;;;;0.50;0.40;;;6.40;99.90;;;;;;5029098;28;20591;-81
2023/04/09 01:07:36;;;;;;;0.50;0.40;;;6.40;99.90;;;;;;5026739;28;20205;-81
2023/04/09 01:10:15;;;;;;;0.50;0.50;;;6.40;99.90;;;;;;5036976;28;20195;-81
2023/04/09 01:12:50;;;;;;;0.50;0.40;;;6.30;99.90;;;;;;5023346;28;20277;-80
2023/04/09 01:15:25;;;;;;;0.60;0.50;;;6.30;99.90;;;;;;5027032;28;20219;-80
2023/04/09 01:17:56;;;;;;;1.30;1.30;;;6.20;99.90;;;;;;5027343;28;20252;-82
2023/04/09 01:20:30;;;;;;;0.50;0.50;;;6.10;99.90;;;;;;5027860;28;20199;-78
2023/04/09 01:23:11;;;;;;;0.98;0.98;;;6.10;99.90;;;;;;5036699;28;20226;-81
2023/04/09 01:25:52;;;;;;;0.50;0.40;;;6.00;99.90;;;;;;5036777;28;20383;-81
2023/04/09 01:28:25;;;;;;;0.55;0.55;;;6.00;99.90;;;;;;5037113;28;20200;-80
2023/04/09 01:30:57;;;;;;;0.50;0.40;;;5.90;99.90;;;;;;5036899;28;20203;-81
2023/04/09 01:33:25;;;;;;;1.67;1.58;;;5.90;99.90;;;;;;5029027;28;20200;-81
2023/04/09 01:35:53;;;;;;;0.50;0.50;;;5.90;99.90;;;;;;5030568;28;20234;-81
2023/04/09 01:38:21;;;;;;;0.50;0.40;;;5.90;99.90;;;;;;5035584;28;20597;-79
2023/04/09 01:40:49;;;;;;;0.60;0.60;;;5.80;99.90;;;;;;5036999;28;20202;-81
2023/04/09 01:43:17;;;;;;;0.50;0.50;;;5.80;99.90;;;;;;5036360;28;20651;-80
2023/04/09 01:45:47;;;;;;;2.65;2.45;;;5.80;99.90;;;;;;5027209;28;20215;-83
2023/04/09 01:48:14;;;;;;;0.50;0.40;;;5.80;99.90;;;;;;5033986;28;20203;-81
2023/04/09 01:50:42;;;;;;;0.50;0.40;;;5.80;99.90;;;;;;5029763;28;20825;-81
2023/04/09 01:53:09;;;;;;;0.50;0.40;;;5.80;99.90;;;;;;5035782;28;20203;-80
2023/04/09 01:55:36;;;;;;;0.70;0.70;;;5.70;99.90;;;;;;5035860;28;20222;-81
2023/04/09 01:58:02;;;;;;;11.90;3.63;;;5.80;99.90;;;;;;5027939;28;20192;-81
2023/04/09 02:00:35;;;;;;;0.50;0.40;;;5.90;99.90;;;;;;5035686;28;20206;-81
2023/04/09 02:03:08;;;;;;;2.08;1.88;;;5.90;99.90;;;;;;5028338;28;20283;-82
2023/04/09 02:05:38;;;;;;;0.50;0.40;;;6.00;99.90;;;;;;5020241;28;20215;-81
2023/04/09 02:08:08;;;;;;;4.75;2.78;;;6.00;99.90;;;;;;5036396;28;20196;-82
2023/04/09 02:10:37;;;;;;;2.67;2.38;;;6.00;99.90;;;;;;5020506;28;20630;-80
2023/04/09 02:13:05;;;;;;;0.50;0.50;;;6.00;99.90;;;;;;5035613;28;20191;-81
2023/04/09 02:15:35;;;;;;;0.70;0.70;;;6.00;99.90;;;;;;5027399;28;20657;-81
2023/04/09 02:18:03;;;;;;;0.50;0.50;;;6.00;99.90;;;;;;5035615;28;20594;-80
2023/04/09 02:20:30;;;;;;;0.50;0.40;;;5.90;99.90;;;;;;5035321;28;20286;-81
2023/04/09 02:22:56;;;;;;;0.50;0.40;;;5.80;99.90;;;;;;5028904;28;20679;-81
2023/04/09 02:25:24;;;;;;;0.50;0.40;;;5.70;99.90;;;;;;5034709;28;20283;-81
2023/04/09 02:27:51;;;;;;;0.63;0.63;;;5.70;99.90;;;;;;5039081;28;20704;-81
2023/04/09 02:30:18;;;;;;;0.60;0.60;;;5.60;99.90;;;;;;5039298;28;20230;-81
2023/04/09 02:32:45;;;;;;;0.50;0.40;;;5.60;99.90;;;;;;5039393;28;20302;-81
2023/04/09 02:35:14;;;;;;;2.58;0.88;;;5.60;99.90;;;;;;5038979;28;20261;-81
2023/04/09 02:37:40;;;;;;;1.00;0.95;;;5.50;99.90;;;;;;5034702;28;20223;-81
2023/04/09 02:40:08;;;;;;;4.32;1.20;;;5.50;99.90;;;;;;5027281;28;20582;-81
2023/04/09 02:42:35;;;;;;;0.50;0.40;;;5.50;99.90;;;;;;5023013;28;20275;-81
2023/04/09 02:45:02;;;;;;;0.50;0.40;;;5.50;99.90;;;;;;5031579;28;20227;-81
2023/04/09 02:47:29;;;;;;;1.80;1.70;;;5.40;99.90;;;;;;5039603;28;20192;-81
2023/04/09 02:49:56;;;;;;;1.17;1.15;;;5.40;99.90;;;;;;5039293;28;20192;-81
2023/04/09 02:52:24;;;;;;;4.75;3.90;;;5.30;99.90;;;;;;5039640;28;20278;-82
2023/04/09 02:54:52;;;;;;;0.50;0.40;;;5.30;99.90;;;;;;5039351;28;20262;-81
2023/04/09 02:57:19;;;;;;;0.50;0.40;;;5.30;99.90;;;;;;5038857;28;20200;-78
2023/04/09 02:59:47;;;;;;;0.93;0.93;;;5.30;99.90;;;;;;5039969;28;20283;-81
2023/04/09 03:02:14;;;;;;;0.50;0.50;;;5.20;99.90;;;;;;5038729;28;20196;-81
2023/04/09 03:04:41;;;;;;;0.88;0.88;;;5.20;99.90;;;;;;5031717;28;20218;-82
2023/04/09 03:07:07;;;;;;;0.50;0.40;;;5.10;99.90;;;;;;5031163;28;20202;-81
2023/04/09 03:09:35;;;;;;;0.70;0.70;;;5.10;99.90;;;;;;5039127;28;20191;-81
2023/04/09 03:12:02;;;;;;;1.20;1.20;;;5.10;99.90;;;;;;5032165;28;20291;-81
2023/04/09 03:14:29;;;;;;;0.50;0.40;;;5.10;99.90;;;;;;5029619;28;20722;-81
2023/04/09 03:16:56;;;;;;;0.50;0.40;;;5.10;99.90;;;;;;5032381;28;20198;-81
2023/04/09 03:19:23;;;;;;;0.50;0.40;;;5.00;99.90;;;;;;5036513;28;20285;-78
2023/04/09 03:21:50;;;;;;;4.45;2.28;;;5.00;99.90;;;;;;5038823;28;20278;-80
2023/04/09 03:24:17;;;;;;;0.50;0.40;;;4.90;99.90;;;;;;5038169;28;20214;-80
2023/04/09 03:26:45;;;;;;;0.52;0.52;;;4.90;99.90;;;;;;5038122;28;20242;-81
2023/04/09 03:29:12;;;;;;;0.70;0.70;;;4.90;99.90;;;;;;5030321;28;20226;-81
2023/04/09 03:31:39;;;;;;;0.68;0.68;;;4.90;99.90;;;;;;5038809;28;20294;-80
2023/04/09 03:34:06;;;;;;;0.50;0.40;;;4.80;99.90;;;;;;5039080;28;20262;-81
2023/04/09 03:36:32;;;;;;;0.50;0.40;;;4.80;99.90;;;;;;5034036;28;20230;-82
2023/04/09 03:39:00;;;;;;;1.23;1.23;;;4.70;99.90;;;;;;5027163;28;20195;-81
2023/04/09 03:41:27;;;;;;;0.60;0.60;;;4.70;99.90;;;;;;5028610;28;20222;-80
2023/04/09 03:43:56;;;;;;;0.60;0.60;;;4.70;99.90;;;;;;5037678;28;20282;-80
2023/04/09 03:46:23;;;;;;;0.50;0.50;;;4.70;99.90;;;;;;5019377;28;20224;-81
2023/04/09 03:48:50;;;;;;;1.00;0.80;;;4.70;99.90;;;;;;5030623;28;20195;-82
2023/04/09 03:51:18;;;;;;;4.05;2.05;;;4.60;99.90;;;;;;5037641;28;20221;-82
2023/04/09 03:53:45;;;;;;;0.50;0.40;;;4.60;99.90;;;;;;5029673;28;20198;-81
2023/04/09 03:56:12;;;;;;;0.50;0.50;;;4.60;99.90;;;;;;5037504;28;20215;-81
2023/04/09 03:58:38;;;;;;;0.60;0.50;;;4.60;99.90;;;;;;5029920;28;20230;-81
2023/04/09 04:01:07;;;;;;;0.98;0.98;;;4.50;99.90;;;;;;5040433;28;20261;-80
2023/04/09 04:03:33;;;;;;;1.20;1.20;;;4.50;99.90;;;;;;5038145;28;20282;-82
2023/04/09 04:06:01;;;;;;;0.50;0.40;;;4.40;99.90;;;;;;5037071;28;20216;-81
2023/04/09 04:08:28;;;;;;;0.50;0.40;;;4.40;99.90;;;;;;5037325;28;20196;-81
2023/04/09 04:10:55;;;;;;;0.70;0.70;;;4.40;99.90;;;;;;5023992;28;20279;-81
2023/04/09 04:13:22;;;;;;;0.50;0.40;;;4.40;99.90;;;;;;5017589;28;20203;-80
2023/04/09 04:15:49;;;;;;;0.93;0.93;;;4.40;99.90;;;;;;5030212;28;20294;-82
2023/04/09 04:18:17;;;;;;;0.50;0.40;;;4.20;99.90;;;;;;5037116;28;20726;-81
2023/04/09 04:20:44;;;;;;;1.15;1.15;;;4.10;99.90;;;;;;5037243;28;20286;-81
2023/04/09 04:23:10;;;;;;;2.38;2.25;;;4.00;99.90;;;;;;5037592;28;20231;-81
2023/04/09 04:25:40;;;;;;;0.50;0.40;;;4.00;99.90;;;;;;5028470;28;20237;-81
2023/04/09 04:28:07;;;;;;;0.50;0.40;;;4.00;99.90;;;;;;5029070;28;20206;-81
2023/04/09 04:30:34;;;;;;;0.60;0.60;;;3.90;99.90;;;;;;5034138;28;20206;-81
2023/04/09 04:33:00;;;;;;;1.13;1.13;;;3.90;99.90;;;;;;5017342;28;20192;-82
2023/04/09 04:35:29;;;;;;;0.50;0.50;;;3.80;99.90;;;;;;5035227;28;20273;-82
2023/04/09 04:37:55;;;;;;;0.50;0.40;;;3.70;99.90;;;;;;5029082;28;20282;-81
2023/04/09 04:40:22;;;;;;;1.50;1.40;;;3.70;99.90;;;;;;5028505;28;20195;-81
2023/04/09 04:42:49;;;;;;;0.50;0.45;;;3.70;99.90;;;;;;5037057;28;20202;-81
2023/04/09 04:45:16;;;;;;;0.55;0.40;;;3.70;99.90;;;;;;5036878;28;20231;-80
2023/04/09 04:47:43;;;;;;;0.50;0.50;;;3.60;99.90;;;;;;5036216;28;20191;-81
2023/04/09 04:50:10;;;;;;;0.50;0.40;;;3.60;99.90;;;;;;5036551;28;20199;-80
2023/04/09 04:52:39;;;;;;;0.50;0.40;;;3.70;99.90;;;;;;5036076;28;20191;-80
2023/04/09 04:55:06;;;;;;;0.50;0.40;;;3.70;99.90;;;;;;5034706;28;20223;-82
2023/04/09 04:57:33;;;;;;;2.10;1.13;;;3.70;99.90;;;;;;5033918;28;20191;-81
2023/04/09 05:00:00;;;;;;;0.50;0.40;;;3.80;99.90;;;;;;5034020;28;20192;-81
2023/04/09 05:02:27;;;;;;;0.63;0.63;;;3.90;99.90;;;;;;5033920;28;20263;-78
2023/04/09 05:04:53;;;;;;;1.50;1.40;;;3.90;99.90;;;;;;5033657;28;20218;-81
2023/04/09 05:07:20;;;;;;;1.05;0.88;;;3.90;99.90;;;;;;5034452;28;20257;-77
2023/04/09 05:09:49;;;;;;;1.13;1.02;;;4.00;99.90;;;;;;5034790;28;20195;-82
2023/04/09 05:12:16;;;;;;;0.50;0.40;;;4.10;99.90;;;;;;5034446;28;20253;-81
2023/04/09 05:14:43;;;;;;;0.50;0.40;;;4.10;99.90;;;;;;5033935;28;20246;-82
2023/04/09 05:17:10;;;;;;;3.42;3.33;;;4.20;99.90;;;;;;5025545;28;20195;-81
2023/04/09 05:19:37;;;;;;;2.35;1.80;;;4.20;99.90;;;;;;5033816;28;20226;-80
2023/04/09 05:22:04;;;;;;;0.50;0.40;;;4.30;99.90;;;;;;5033961;28;20283;-82
2023/04/09 05:24:31;;;;;;;0.80;0.70;;;4.30;99.90;;;;;;5034046;28;20203;-81
2023/04/09 05:27:00;;;;;;;1.77;1.67;;;4.40;99.90;;;;;;5033587;28;20306;-82
2023/04/09 05:29:26;;;;;;;0.73;0.73;;;4.40;99.90;;;;;;5033854;28;20191;-82
2023/04/09 05:31:53;;;;;;;0.50;0.40;;;4.50;99.90;;;;;;5033564;28;20197;-82
2023/04/09 05:34:20;;;;;;;0.50;0.40;;;4.50;99.90;;;;;;5033719;28;20271;-80
2023/04/09 05:36:47;;;;;;;2.17;2.08;;;4.60;99.90;;;;;;5033402;28;20206;-82
2023/04/09 05:39:14;;;;;;;1.20;1.20;;;4.70;99.90;;;;;;5034040;28;20191;-82
2023/04/09 05:41:41;;;;;;;0.50;0.40;;;4.80;99.90;;;;;;5025132;28;20294;-82
2023/04/09 05:44:09;;;;;;;1.90;1.80;;;4.80;99.90;;;;;;5033425;28;20201;-82
2023/04/09 05:46:36;;;;;;;15.93;1.98;;;4.90;99.90;;;;;;5030332;28;20211;-82
2023/04/09 05:49:03;;;;;;;0.50;0.40;;;4.90;99.90;;;;;;5027696;28;20195;-82
2023/04/09 05:51:30;;;;;;;0.60;0.60;;;5.10;99.90;;;;;;5033276;28;20229;-82
2023/04/09 05:53:58;;;;;;;13.23;3.35;;;5.20;99.90;;;;;;5033336;28;20188;-81
2023/04/09 05:56:26;;;;;;;0.50;0.50;;;5.40;99.90;;;;;;5032654;28;20207;-82
2023/04/09 05:58:53;;;;;;;1.30;1.20;;;5.60;99.90;;;;;;5035928;28;20670;-82
2023/04/09 06:01:21;;;;;;;0.50;0.40;;;6.00;99.90;;;;;;5038949;28;20286;-82
2023/04/09 06:03:48;;;;;;;0.50;0.40;;;6.80;99.90;;;;;;5024144;28;20279;-82
2023/04/09 06:06:15;;;;;;;2.65;1.42;;;7.60;99.90;;;;;;5038016;28;20215;-82
2023/04/09 06:08:43;;;;;;;32.20;7.35;;;8.50;99.90;;;;;;5037341;28;20582;-84
2023/04/09 06:11:10;;;;;;;0.50;0.40;;;9.20;99.90;;;;;;5037921;28;20203;-82
2023/04/09 06:13:37;;;;;;;3.90;3.67;;;10.10;99.90;;;;;;5037951;28;20741;-82
2023/04/09 06:16:05;;;;;;;0.98;0.98;;;10.90;99.90;;;;;;5037471;28;20230;-82
2023/04/09 06:18:33;;;;;;;0.50;0.40;;;11.50;99.90;;;;;;5044171;28;20195;-82
2023/04/09 06:21:04;;;;;;;0.50;0.40;;;12.30;99.90;;;;;;5058282;28;20258;-84
2023/04/09 06:23:31;;;;;;;0.50;0.50;;;13.00;99.90;;;;;;5047363;28;20207;-79
2023/04/09 06:25:57;;;;;;;2.03;1.60;;;13.70;99.90;;;;;;5039007;28;20560;-83
2023/04/09 06:28:24;;;;;;;0.60;0.50;;;14.00;99.90;;;;;;5038715;28;20971;-80
2023/04/09 06:30:52;;;;;;;0.60;0.60;;;14.30;99.90;;;;;;5038254;28;20438;-83
2023/04/09 06:33:19;;;;;;;0.77;0.77;;;14.80;99.90;;;;;;5038250;28;20507;-82
2023/04/09 06:35:48;;;;;;;3.20;2.90;;;15.00;99.90;;;;;;5036543;28;20465;-82
2023/04/09 06:38:15;;;;;;;0.60;0.60;;;15.30;99.90;;;;;;5037145;28;20438;-82
2023/04/09 06:40:42;;;;;;;3.37;3.10;;;15.90;99.90;;;;;;5037884;28;21023;-82
2023/04/09 06:43:09;;;;;;;0.50;0.40;;;16.50;99.90;;;;;;5037704;28;20497;-82
2023/04/09 06:45:36;;;;;;;0.50;0.40;;;17.10;99.90;;;;;;5037210;28;20481;-83
2023/04/09 06:48:04;;;;;;;0.83;0.83;;;17.80;95.90;;;;;;5036640;28;20441;-81
2023/04/09 06:50:30;;;;;;;0.50;0.40;;;18.40;92.80;;;;;;5037575;28;20438;-82
2023/04/09 06:52:59;;;;;;;0.50;0.30;;;18.90;91.00;;;;;;5037509;28;20604;-83
2023/04/09 06:55:26;;;;;;;0.50;0.40;;;19.60;90.40;;;;;;5036887;28;20798;-81
2023/04/09 06:57:53;;;;;;;0.50;0.40;;;19.70;83.20;;;;;;5037182;28;20441;-83
2023/04/09 07:00:21;;;;;;;0.50;0.40;;;20.50;86.40;;;;;;5036891;28;20442;-82
2023/04/09 07:02:48;;;;;;;0.50;0.40;;;21.20;79.60;;;;;;5036595;28;20446;-83
2023/04/09 07:05:15;;;;;;;1.43;1.43;;;21.60;75.60;;;;;;5037285;28;20462;-84
2023/04/09 07:07:42;;;;;;;0.60;0.50;;;22.00;74.10;;;;;;5037051;28;20510;-81
2023/04/09 07:10:11;;;;;;;0.50;0.30;;;22.50;71.80;;;;;;5036924;28;20510;-81
2023/04/09 07:12:37;;;;;;;1.83;1.73;;;22.90;70.00;;;;;;5036700;28;20510;-83
2023/04/09 07:15:06;;;;;;;0.50;0.40;;;23.20;66.30;;;;;;5036457;28;20538;-80
2023/04/09 07:17:34;;;;;;;0.60;0.50;;;23.30;66.20;;;;;;5036856;28;20427;-81
2023/04/09 07:20:00;;;;;;;0.50;0.40;;;23.90;65.00;;;;;;5036902;28;20925;-82
2023/04/09 07:22:29;;;;;;;0.50;0.50;;;24.50;62.60;;;;;;5036323;28;20438;-81
2023/04/09 07:24:57;;;;;;;0.50;0.47;;;24.40;60.80;;;;;;5036890;28;20462;-82
2023/04/09 07:27:26;;;;;;;0.50;0.30;;;24.60;59.70;;;;;;5036636;28;20480;-81
2023/04/09 07:29:55;;;;;;;2.50;1.03;;;25.10;60.40;;;;;;5033188;28;20447;-82
2023/04/09 07:32:22;;;;;;;7.20;5.13;;;25.80;58.20;;;;;;5033467;28;20438;-82
2023/04/09 07:34:51;;;;;;;0.60;0.60;;;25.50;58.00;;;;;;5036546;28;20462;-82
2023/04/09 07:37:18;;;;;;;2.53;2.43;;;25.50;57.20;;;;;;5037360;28;20433;-81
2023/04/09 07:39:45;;;;;;;0.50;0.30;;;26.30;58.70;;;;;;5036301;28;20804;-82
2023/04/09 07:42:12;;;;;;;0.97;0.80;;;26.20;56.30;;;;;;5036237;28;20932;-80
2023/04/09 07:44:40;;;;;;;1.00;0.60;;;25.80;55.70;;;;;;5036234;28;20543;-82
2023/04/09 07:47:08;;;;;;;0.60;0.60;;;25.40;54.70;;;;;;5036510;28;20481;-81
2023/04/09 07:49:36;;;;;;;1.37;1.23;;;25.70;56.40;;;;;;5036169;28;20529;-83
2023/04/09 07:52:04;;;;;;;14.10;12.70;;;26.10;56.00;;;;;;5037006;28;20861;-82
2023/04/09 07:54:31;;;;;;;4.93;2.47;;;25.60;55.20;;;;;;5035654;28;20885;-82
2023/04/09 07:56:58;;;;;;;0.50;0.40;;;25.20;55.60;;;;;;5036352;28;20430;-83
2023/04/09 07:59:26;;;;;;;1.93;1.57;;;25.80;55.40;;;;;;5036262;28;20884;-79
2023/04/09 08:01:54;;;;;;;0.50;0.30;;;26.30;55.00;;;;;;5036118;28;20454;-82
2023/04/09 08:04:21;;;;;;;1.93;1.70;;;25.90;53.20;;;;;;5036211;28;20529;-82
2023/04/09 08:06:50;;;;;;;2.50;2.30;;;26.20;54.10;;;;;;5035893;28;20513;-82
2023/04/09 08:09:17;;;;;;;1.93;1.83;;;26.10;51.90;;;;;;5036115;28;20450;-83
2023/04/09 08:11:44;;;;;;;0.80;0.80;;;26.30;52.80;;;;;;5035591;28;20508;-82
2023/04/09 08:14:11;;;;;;;1.67;1.57;;;26.10;53.00;;;;;;5036205;28;20818;-82
2023/04/09 08:16:39;;;;;;;1.13;1.13;;;26.30;53.60;;;;;;5035877;28;20469;-82
2023/04/09 08:19:07;;;;;;;0.57;0.50;;;27.10;52.30;;;;;;5035813;28;20438;-83
2023/04/09 08:21:36;;;;;;;9.40;2.93;;;27.10;53.10;;;;;;5035856;28;20450;-81
2023/04/09 08:24:04;;;;;;;0.60;0.60;;;26.60;50.80;;;;;;5035776;28;20438;-82
2023/04/09 08:26:31;;;;;;;0.53;0.53;;;26.50;51.90;;;;;;5035206;28;20482;-81
2023/04/09 08:28:58;;;;;;;0.50;0.30;;;27.10;51.20;;;;;;5040202;28;20466;-82
2023/04/09 08:31:25;;;;;;;0.50;0.30;;;26.60;50.50;;;;;;5050531;28;20430;-80
2023/04/09 08:33:52;;;;;;;1.33;1.23;;;27.00;50.10;;;;;;5035206;28;20442;-82
2023/04/09 08:36:20;;;;;;;0.50;0.30;;;27.20;49.90;;;;;;5030726;28;20474;-83
2023/04/09 08:38:47;;;;;;;1.80;1.70;;;27.40;49.50;;;;;;5036133;28;20448;-82
2023/04/09 08:41:18;;;;;;;3.73;2.97;;;27.20;48.40;;;;;;5035430;28;20446;-83
2023/04/09 08:43:46;;;;;;;0.83;0.60;;;27.30;50.50;;;;;;5026582;28;20445;-82
2023/04/09 08:46:14;;;;;;;1.27;1.17;;;27.10;48.70;;;;;;5034902;28;20913;-82
2023/04/09 08:48:44;;;;;;;0.50;0.40;;;27.30;50.30;;;;;;5034624;28;20442;-82
2023/04/09 08:51:13;;;;;;;1.90;1.47;;;27.30;48.50;;;;;;5035687;28;20438;-82
2023/04/09 08:53:44;;;;;;;3.37;1.13;;;27.50;48.40;;;;;;5035667;28;20460;-82
2023/04/09 08:56:12;;;;;;;1.27;1.17;;;27.30;47.50;;;;;;5028273;28;20466;-82
2023/04/09 08:58:42;;;;;;;0.50;0.30;;;25.40;48.80;;;;;;5035417;28;20529;-81
2023/04/09 09:01:19;;;;;;;0.50;0.40;;;24.50;50.70;;;;;;5035950;28;20449;-81
2023/04/09 09:03:55;;;;;;;0.63;0.63;;;23.80;50.90;;;;;;5035178;28;20438;-82
2023/04/09 09:06:23;;;;;;;0.50;0.40;;;22.20;52.20;;;;;;5035395;28;20841;-79
2023/04/09 09:09:03;;;;;;;1.77;0.80;;;20.90;53.50;;;;;;5034925;28;20473;-82
2023/04/09 09:11:30;;;;;;;0.93;0.93;;;19.80;54.40;;;;;;5034586;28;20449;-81
2023/04/09 09:14:02;;;;;;;1.43;1.33;;;19.30;54.00;;;;;;5035184;28;20452;-81
2023/04/09 09:16:29;;;;;;;0.50;0.30;;;18.30;55.10;;;;;;5035147;28;20462;-80
2023/04/09 09:18:56;;;;;;;1.47;1.37;;;17.20;56.80;;;;;;5035304;28;20461;-81
2023/04/09 09:21:23;;;;;;;0.50;0.40;;;16.70;57.50;;;;;;5034894;28;20442;-81
2023/04/09 09:23:50;;;;;;;0.50;0.40;;;16.30;58.60;;;;;;5034660;28;20454;-80
2023/04/09 09:26:23;;;;;;;0.60;0.60;;;16.40;59.90;;;;;;5034777;28;20488;-81
2023/04/09 09:28:50;;;;;;;1.53;1.43;;;16.80;59.90;;;;;;5034845;28;20442;-81
2023/04/09 09:31:19;;;;;;;0.50;0.30;;;17.30;59.30;;;;;;5035341;28;20533;-80
2023/04/09 09:33:47;;;;;;;1.27;0.50;;;18.40;58.20;;;;;;5034555;28;20438;-81
2023/04/09 09:36:15;;;;;;;0.93;0.93;;;18.60;56.70;;;;;;5037048;28;20531;-81
2023/04/09 09:38:52;;;;;;;0.50;0.30;;;17.90;56.80;;;;;;5039225;28;20537;-80
2023/04/09 09:41:20;;;;;;;0.77;0.50;;;18.40;58.90;;;;;;5038976;28;20438;-82
2023/04/09 09:43:47;;;;;;;2.07;1.10;;;19.90;56.70;;;;;;5039221;28;20466;-82
2023/04/09 09:46:15;;;;;;;0.50;0.40;;;21.20;56.10;;;;;;5038053;28;20473;-83
2023/04/09 09:48:43;;;;;;;1.77;1.67;;;21.80;54.20;;;;;;5038386;28;20434;-82
2023/04/09 09:51:11;;;;;;;4.10;2.67;;;22.90;53.10;;;;;;5038838;28;20448;-83
2023/04/09 09:53:39;;;;;;;0.50;0.30;;;23.30;51.90;;;;;;5039071;28;20453;-82
2023/04/09 09:56:07;;;;;;;1.43;1.33;;;23.90;51.90;;;;;;5037679;28;20548;-83
2023/04/09 09:58:38;;;;;;;6.93;1.70;;;23.50;50.10;;;;;;5038724;28;20442;-83
2023/04/09 10:01:09;;;;;;;2.30;1.80;;;22.80;50.50;;;;;;5022906;28;20802;-82
2023/04/09 10:03:38;;;;;;;0.50;0.30;;;21.60;51.00;;;;;;5038553;28;20442;-82
2023/04/09 10:06:06;;;;;;;0.50;0.40;;;21.00;52.90;;;;;;5037975;28;20484;-81
2023/04/09 10:08:36;;;;;;;0.50;0.40;;;20.80;53.40;;;;;;5038088;28;20445;-82
2023/04/09 10:11:05;;;;;;;0.50;0.40;;;20.80;57.60;;;;;;5038102;28;20445;-82
2023/04/09 10:13:38;;;;;;;0.50;0.50;;;21.90;58.20;;;;;;5038463;28;20521;-79
2023/04/09 10:16:07;;;;;;;0.60;0.50;;;23.60;56.20;;;;;;5022755;28;20490;-81
2023/04/09 10:18:34;;;;;;;4.87;4.57;;;25.60;52.30;;;;;;5038169;28;20442;-83
2023/04/09 10:21:05;;;;;;;1.33;1.23;;;24.20;47.50;;;;;;5037726;28;20971;-83
2023/04/09 10:23:36;;;;;;;0.63;0.63;;;24.60;48.50;;;;;;5038119;28;20433;-78
2023/04/09 10:26:04;;;;;;;1.37;1.37;;;24.10;46.60;;;;;;5037728;28;20510;-82
2023/04/09 10:28:32;;;;;;;1.63;1.53;;;23.20;48.00;;;;;;5038074;28;20842;-83
2023/04/09 10:31:00;;;;;;;0.60;0.50;;;22.80;48.00;;;;;;5037994;28;20972;-83
2023/04/09 10:33:28;;;;;;;2.60;1.60;;;23.70;50.40;;;;;;5037759;28;20476;-82
2023/04/09 10:35:59;;;;;;;0.70;0.40;;;24.40;48.60;;;;;;5037097;28;20577;-82
2023/04/09 10:38:37;;;;;;;1.33;1.23;;;24.80;47.80;;;;;;5038207;28;20524;-83
2023/04/09 10:41:14;;;;;;;0.50;0.37;;;24.40;48.60;;;;;;5021418;28;20442;-81
2023/04/09 10:43:41;;;;;;;0.50;0.40;;;23.90;47.50;;;;;;5037940;28;20429;-83
2023/04/09 10:46:26;;;;;;;1.27;1.17;;;23.20;50.70;;;;;;5036711;28;20466;-83
2023/04/09 10:49:18;;;;;;;1.30;1.00;;;23.70;49.10;;;;;;5036752;28;20437;-82
2023/04/09 10:51:51;;;;;;;1.33;1.23;;;23.50;48.40;;;;;;5022040;28;20505;-82
2023/04/09 10:54:44;;;;;;;1.53;0.83;;;22.60;49.30;;;;;;5036715;28;20533;-82
2023/04/09 10:57:19;;;;;;;2.30;1.70;;;21.60;49.40;;;;;;5037228;28;20614;-82
2023/04/09 10:59:48;;;;;;;1.47;1.23;;;20.60;50.70;;;;;;5035940;28;20940;-82
2023/04/09 11:02:57;;;;;;;1.30;1.10;;;20.10;52.90;;;;;;5030579;28;20525;-82
2023/04/09 11:05:43;;;;;;;2.67;2.47;;;18.80;52.40;;;;;;5036278;28;20520;-81
2023/04/09 11:08:12;;;;;;;0.50;0.30;;;18.70;54.30;;;;;;5036304;28;20482;-82
2023/04/09 11:10:39;;;;;;;0.50;0.40;;;18.30;54.10;;;;;;5036895;28;20445;-80
2023/04/09 11:13:07;;;;;;;1.33;0.70;;;18.30;55.00;;;;;;5036578;28;20446;-82
2023/04/09 11:15:35;;;;;;;0.50;0.30;;;18.60;54.60;;;;;;5036124;28;20550;-83
2023/04/09 11:18:05;;;;;;;0.50;0.40;;;18.50;54.10;;;;;;5036450;28;20787;-82
2023/04/09 11:20:34;;;;;;;0.50;0.40;;;18.00;54.30;;;;;;5036413;28;20450;-83
2023/04/09 11:23:01;;;;;;;0.50;0.30;;;18.00;55.60;;;;;;5036350;28;20450;-82
2023/04/09 11:25:30;;;;;;;0.70;0.50;;;18.50;57.60;;;;;;5036115;28;20466;-81
2023/04/09 11:27:57;;;;;;;1.37;1.27;;;19.20;54.90;;;;;;5036270;28;20572;-82
2023/04/09 11:30:24;;;;;;;0.70;0.70;;;19.00;53.00;;;;;;5036410;28;20541;-82
2023/04/09 11:32:51;;;;;;;0.50;0.40;;;18.60;53.20;;;;;;5036161;28;20442;-83
2023/04/09 11:35:20;;;;;;;1.57;1.47;;;18.80;54.40;;;;;;5035662;28;20549;-82
2023/04/09 11:37:48;;;;;;;1.50;1.40;;;18.50;53.80;;;;;;5036540;28;20786;-83
2023/04/09 11:40:17;;;;;;;1.77;0.63;;;18.30;54.70;;;;;;5036216;28;20464;-82
2023/04/09 11:42:44;;;;;;;0.50;0.40;;;18.00;54.50;;;;;;5035999;28;20442;-83
2023/04/09 11:45:12;;;;;;;0.50;0.30;;;17.60;55.80;;;;;;5036567;28;20462;-84
2023/04/09 11:47:41;;;;;;;0.50;0.40;;;18.00;57.10;;;;;;5036480;28;20477;-82
2023/04/09 11:50:10;;;;;;;0.50;0.40;;;18.90;56.50;;;;;;5036308;28;20438;-82
2023/04/09 11:52:40;;;;;;;0.50;0.40;;;19.70;55.60;;;;;;5036249;28;20434;-82
2023/04/09 11:55:08;;;;;;;0.50;0.30;;;19.50;55.00;;;;;;5018198;28;20463;-82
2023/04/09 11:57:41;;;;;;;0.50;0.30;;;19.40;55.90;;;;;;5006186;28;20439;-83
2023/04/09 12:00:10;;;;;;;0.50;0.30;;;19.30;55.30;;;;;;5013723;28;20447;-84
2023/04/09 12:02:39;;;;;;;0.50;0.30;;;18.90;54.90;;;;;;5008915;28;20494;-82
2023/04/09 12:05:08;;;;;;;0.50;0.30;;;18.10;54.30;;;;;;5015749;28;20523;-83
2023/04/09 12:07:36;;;;;;;3.03;1.60;;;18.00;55.50;;;;;;5013932;28;20562;-84
2023/04/09 12:10:10;;;;;;;0.50;0.40;;;18.00;55.80;;;;;;5016798;28;20459;-83
2023/04/09 12:12:43;;;;;;;0.60;0.60;;;17.80;55.80;;;;;;5026319;28;20438;-85
2023/04/09 12:15:20;;;;;;;0.93;0.60;;;18.50;56.80;;;;;;5013132;28;20466;-83
2023/04/09 12:17:49;;;;;;;0.50;0.30;;;19.10;55.70;;;;;;5011165;28;20477;-84
2023/04/09 12:20:30;;;;;;;0.50;0.30;;;19.10;55.00;;;;;;5007729;28;20447;-83
2023/04/09 12:22:59;;;;;;;3.33;0.73;;;18.90;54.90;;;;;;5007195;28;20445;-80
2023/04/09 12:25:27;;;;;;;0.83;0.83;;;19.20;55.60;;;;;;5006277;28;20466;-82
2023/04/09 12:27:55;;;;;;;0.50;0.30;;;18.90;54.80;;;;;;5015254;28;20467;-81
2023/04/09 12:30:22;;;;;;;0.60;0.60;;;19.60;56.50;;;;;;5009991;28;20443;-83
2023/04/09 12:32:49;;;;;;;0.50;0.40;;;20.60;54.50;;;;;;5015806;28;20877;-82
2023/04/09 12:35:17;;;;;;;0.50;0.40;;;20.30;53.30;;;;;;5028754;28;20465;-83
2023/04/09 12:37:45;;;;;;;0.50;0.30;;;19.90;54.10;;;;;;5013746;28;20444;-81
2023/04/09 12:40:12;;;;;;;0.70;0.50;;;20.60;54.20;;;;;;5030896;22;20504;-77
2023/04/09 12:42:41;;;;;;;1.83;0.80;;;21.00;54.10;;;;;;5058961;28;20465;-78
2023/04/09 12:45:10;;;;;;;0.60;0.50;;;21.70;54.50;;;;;;5068195;28;20446;-78
2023/04/09 12:47:38;;;;;;;1.60;1.23;;;22.20;52.40;;;;;;5071206;28;20504;-78
2023/04/09 12:50:06;;;;;;;0.50;0.37;;;21.80;51.60;;;;;;5065296;28;20452;-78
2023/04/09 12:52:34;;;;;;;0.73;0.63;;;22.10;52.30;;;;;;5044286;28;20457;-77
2023/04/09 12:55:01;;;;;;;0.50;0.30;;;22.10;51.70;;;;;;5044200;28;20532;-78
2023/04/09 12:57:28;;;;;;;4.73;1.90;;;22.40;51.30;;;;;;5043140;28;20797;-77